Time;durP1;ratioP1;P1;durP2;ratioP2;P2;SDS_P1;SDS_P2;PMS_P1;PMS_P2;Temp;Humidity;BMP_temperature;BMP_pressure;BME280_temperature;BME280_humidity;BME280_pressure;Samples;Min_cycle;Max_cycle;Signal;HPM_P1;HPM_P2
2021/11/02 00:01:09;;;;;;;4.35;1.87;;;;;;;17.15;43.56;98624.28;4433951;32;20106;-68
2021/11/02 00:03:37;;;;;;;6.75;1.90;;;;;;;16.72;44.52;98625.56;4432277;32;20103;-67
2021/11/02 00:06:02;;;;;;;3.15;1.42;;;;;;;16.76;44.69;98629.63;4435943;32;20045;-67
2021/11/02 00:08:29;;;;;;;1.58;1.10;;;;;;;16.37;45.35;98625.56;4435626;32;20144;-67
2021/11/02 00:10:54;;;;;;;2.72;0.90;;;;;;;16.22;45.39;98631.63;4436086;32;21135;-68
2021/11/02 00:13:22;;;;;;;4.03;1.00;;;;;;;15.86;46.29;98618.72;4432300;32;20037;-68
2021/11/02 00:15:52;;;;;;;4.20;1.10;;;;;;;16.02;46.29;98622.75;4435864;32;20755;-67
2021/11/02 00:18:18;;;;;;;1.92;0.80;;;;;;;15.91;46.39;98630.03;4436216;32;20025;-67
2021/11/02 00:20:44;;;;;;;1.23;0.57;;;;;;;16.14;46.10;98624.22;4435589;32;20085;-68
2021/11/02 00:23:10;;;;;;;2.47;0.40;;;;;;;16.14;46.15;98622.13;4434247;32;20065;-67
2021/11/02 00:25:36;;;;;;;3.45;0.60;;;;;;;15.91;46.58;98629.25;4434550;32;20069;-67
2021/11/02 00:28:04;;;;;;;2.92;0.50;;;;;;;16.07;46.82;98619.13;4435571;32;20072;-67
2021/11/02 00:30:30;;;;;;;4.53;0.68;;;;;;;15.71;47.22;98619.06;4438596;32;20082;-67
2021/11/02 00:32:56;;;;;;;1.00;0.40;;;;;;;15.98;47.00;98619.44;4436958;32;20071;-68
2021/11/02 00:35:23;;;;;;;2.42;0.62;;;;;;;15.81;47.05;98617.44;4435939;32;20086;-68
2021/11/02 00:37:50;;;;;;;1.33;0.35;;;;;;;16.24;46.89;98619.75;4436789;32;20081;-68
2021/11/02 00:40:18;;;;;;;1.55;0.22;;;;;;;16.05;46.94;98619.63;4436069;32;20026;-68
2021/11/02 00:42:53;;;;;;;1.48;0.40;;;;;;;16.00;46.90;98620.44;4438717;32;20462;-68
2021/11/02 00:45:28;;;;;;;0.95;0.20;;;;;;;15.76;47.38;98626.00;4432767;32;20064;-68
2021/11/02 00:47:55;;;;;;;0.80;0.40;;;;;;;15.88;47.55;98625.44;4435432;32;20068;-68
2021/11/02 00:50:20;;;;;;;0.75;0.30;;;;;;;15.75;47.61;98624.47;4435486;32;20093;-68
2021/11/02 00:52:46;;;;;;;0.85;0.15;;;;;;;15.46;48.36;98627.97;4434732;32;20078;-69
2021/11/02 00:55:12;;;;;;;0.88;0.20;;;;;;;15.71;48.18;98624.00;4433137;32;20049;-69
2021/11/02 00:57:38;;;;;;;1.00;0.30;;;;;;;15.72;48.16;98622.69;4436947;32;20954;-69
2021/11/02 01:00:05;;;;;;;2.12;0.25;;;;;;;15.44;48.62;98633.41;4435634;32;20120;-68
2021/11/02 01:02:31;;;;;;;1.23;0.30;;;;;;;15.54;48.58;98634.63;4434370;32;20022;-69
2021/11/02 01:04:57;;;;;;;0.40;0.20;;;;;;;15.53;48.09;98636.69;4433489;32;20453;-69
2021/11/02 01:07:23;;;;;;;0.40;0.20;;;;;;;15.14;48.95;98629.63;4426606;32;20021;-69
2021/11/02 01:09:49;;;;;;;0.20;0.20;;;;;;;15.29;48.55;98642.19;4425311;32;20100;-68
2021/11/02 01:12:15;;;;;;;0.52;0.20;;;;;;;15.21;49.11;98660.25;4426742;32;20077;-69
2021/11/02 01:14:41;;;;;;;0.85;0.20;;;;;;;15.15;49.57;98651.75;4423712;32;20488;-68
2021/11/02 01:17:07;;;;;;;0.93;0.10;;;;;;;15.12;49.29;98652.03;4422339;32;20103;-68
2021/11/02 01:19:33;;;;;;;0.65;0.20;;;;;;;15.51;48.91;98652.69;4424738;32;20081;-68
2021/11/02 01:21:59;;;;;;;0.60;0.15;;;;;;;15.64;48.34;98650.03;4427388;32;20812;-68
2021/11/02 01:24:25;;;;;;;1.92;0.22;;;;;;;15.56;48.43;98649.06;4426570;32;20069;-69
2021/11/02 01:26:52;;;;;;;2.28;0.20;;;;;;;15.87;47.74;98659.97;4422244;32;20086;-69
2021/11/02 01:29:18;;;;;;;1.48;0.20;;;;;;;15.98;47.40;98662.75;4425470;32;20304;-68
2021/11/02 01:31:45;;;;;;;0.75;0.20;;;;;;;15.76;47.37;98665.69;4420518;32;20549;-68
2021/11/02 01:34:11;;;;;;;1.15;0.20;;;;;;;15.98;47.14;98669.19;4425075;32;20128;-68
2021/11/02 01:36:39;;;;;;;2.53;0.20;;;;;;;15.88;47.03;98667.97;4424409;32;20197;-68
2021/11/02 01:39:06;;;;;;;0.52;0.20;;;;;;;15.64;47.36;98662.16;4424841;32;20092;-68
2021/11/02 01:41:33;;;;;;;1.80;0.37;;;;;;;15.83;47.01;98674.44;4425022;32;20057;-68
2021/11/02 01:43:59;;;;;;;0.80;0.13;;;;;;;15.91;46.78;98669.75;4420454;32;20152;-69
2021/11/02 01:46:28;;;;;;;0.52;0.28;;;;;;;15.78;47.35;98663.88;4424016;32;20465;-69
2021/11/02 01:48:56;;;;;;;0.65;0.28;;;;;;;16.24;47.19;98663.09;4423599;32;20044;-69
2021/11/02 01:51:24;;;;;;;1.80;0.35;;;;;;;16.22;46.52;98660.00;4425786;32;20081;-69
2021/11/02 01:53:50;;;;;;;0.70;0.25;;;;;;;16.20;46.82;98661.84;4425947;32;20034;-69
2021/11/02 01:56:18;;;;;;;0.90;0.17;;;;;;;15.83;46.76;98665.16;4422965;32;20402;-69
2021/11/02 01:58:46;;;;;;;1.37;0.20;;;;;;;16.10;46.76;98663.47;4422466;32;20034;-69
2021/11/02 02:01:20;;;;;;;1.17;0.10;;;;;;;15.95;46.90;98660.94;4425366;32;20069;-69
2021/11/02 02:04:10;;;;;;;1.60;0.20;;;;;;;16.14;46.66;98664.69;4424032;32;20042;-69
2021/11/02 02:09:25;;;;;;;2.83;0.40;;;;;;;16.85;45.47;98663.38;3981045;32;15022030;-69
2021/11/02 02:11:57;;;;;;;;;;;;;;;16.85;45.47;98663.38;4436822;32;20060;-69
2021/11/02 02:17:09;;;;;;;1.30;0.32;;;;;;;16.87;44.88;98657.91;3982537;32;15025962;-69
2021/11/02 02:27:41;;;;;;;0.75;0.20;;;;;;;16.69;44.89;98672.81;4002875;31;15017163;-69
2021/11/02 02:30:11;;;;;;;0.57;0.30;;;;;;;16.69;44.89;98672.81;4461581;32;20087;-69
2021/11/02 02:32:42;;;;;;;0.47;0.10;;;;;;;16.36;45.22;98667.37;4461903;32;20092;-69
2021/11/02 02:35:11;;;;;;;0.88;0.55;;;;;;;16.26;46.09;98659.72;4459930;32;20099;-69
2021/11/02 02:37:40;;;;;;;1.45;0.65;;;;;;;16.56;46.01;98663.38;4463774;32;20486;-69
2021/11/02 02:40:07;;;;;;;2.45;0.80;;;;;;;16.50;46.10;98660.56;4464293;32;20028;-69
2021/11/02 02:42:34;;;;;;;2.83;0.68;;;;;;;16.67;46.55;98657.59;4463614;32;20064;-69
2021/11/02 02:45:01;;;;;;;1.95;0.45;;;;;;;16.57;46.57;98662.09;4461296;32;20528;-69
2021/11/02 02:47:28;;;;;;;3.28;0.55;;;;;;;16.81;45.96;98657.19;4463862;32;20072;-69
2021/11/02 02:49:55;;;;;;;1.15;0.52;;;;;;;16.82;45.71;98655.12;4463050;32;20401;-69
2021/11/02 02:52:24;;;;;;;1.92;0.30;;;;;;;16.96;45.65;98651.87;4446161;32;20036;-68
2021/11/02 02:54:51;;;;;;;2.08;0.37;;;;;;;17.09;45.36;98657.69;4462808;32;20092;-69
2021/11/02 02:57:19;;;;;;;1.83;0.50;;;;;;;17.06;45.23;98658.00;4458481;32;20140;-69
2021/11/02 02:59:47;;;;;;;1.05;0.20;;;;;;;17.20;45.41;98659.63;4462893;32;20156;-68
2021/11/02 03:02:14;;;;;;;3.72;0.30;;;;;;;17.08;45.45;98655.38;4461922;32;20395;-68
2021/11/02 03:04:44;;;;;;;0.98;0.40;;;;;;;17.10;45.24;98659.25;4463083;32;20194;-68
2021/11/02 03:07:10;;;;;;;1.30;0.43;;;;;;;17.18;45.46;98662.25;4463519;32;20045;-69
2021/11/02 03:09:37;;;;;;;1.67;0.30;;;;;;;16.99;45.50;98662.19;4460883;32;20053;-68
2021/11/02 03:12:06;;;;;;;1.98;0.50;;;;;;;17.06;45.31;98664.44;4464110;32;20045;-68
2021/11/02 03:14:47;;;;;;;2.87;0.52;;;;;;;17.30;45.03;98661.59;4459456;32;20044;-69
2021/11/02 03:17:17;;;;;;;4.35;0.75;;;;;;;17.43;45.06;98667.41;4461320;32;20125;-68
2021/11/02 04:01:45;;;;;;;5.32;0.68;;;;;;;17.70;43.48;98671.97;3979281;32;15024225;-68
2021/11/02 04:27:19;;;;;;;3.90;0.80;;;;;;;17.03;44.54;98685.38;3981927;32;15021921;-67
2021/11/02 04:38:48;;;;;;;3.35;0.85;;;;;;;17.29;44.42;98682.00;3980948;32;15022097;-68
2021/11/02 04:43:28;;;;;;;4.20;0.98;;;;;;;17.25;44.88;98690.09;4439275;32;20037;-67
2021/11/02 04:46:40;;;;;;;5.05;1.20;;;;;;;17.24;44.63;98700.66;4436483;32;20053;-67
2021/11/02 04:58:14;;;;;;;1.95;0.50;;;;;;;17.64;43.68;98713.16;3976661;32;15022110;-67
2021/11/02 05:49:22;;;;;;;6.97;1.87;;;;;;;16.11;46.03;98718.91;4429743;32;20207;-67
2021/11/02 05:54:55;;;;;;;4.10;1.62;;;;;;;16.05;46.21;98723.81;4430030;32;20045;-67
2021/11/02 05:57:23;;;;;;;;;;;;;;;16.00;46.38;98725.41;4434495;32;20030;-67
2021/11/02 05:59:54;;;;;;;7.20;1.90;;;;;;;16.37;45.78;98722.06;4428206;32;20730;-67
2021/11/02 06:02:39;;;;;;;5.93;1.67;;;;;;;15.93;46.51;98732.38;4428920;32;20088;-67
2021/11/02 06:08:23;;;;;;;6.07;2.00;;;;;;;15.90;46.51;98724.91;4428881;32;20068;-67
2021/11/02 06:30:36;;;;;;;11.20;4.97;;;;;;;16.03;46.91;98741.38;3982462;32;15021982;-67
2021/11/02 06:33:08;;;;;;;9.02;3.90;;;;;;;16.03;46.91;98741.38;4437952;32;20422;-67
2021/11/02 06:35:44;;;;;;;6.70;2.50;;;;;;;15.71;47.43;98745.91;4436113;32;20494;-66
2021/11/02 06:52:07;;;;;;;7.18;3.17;;;;;;;16.18;47.19;98750.31;4450816;32;20067;-67
2021/11/02 06:58:07;;;;;;;7.87;2.60;;;;;;;16.36;46.72;98769.56;3982708;32;15024097;-67
2021/11/02 07:00:41;;;;;;;6.25;2.42;;;;;;;16.36;46.72;98769.56;4435223;32;20064;-67
2021/11/02 07:22:47;;;;;;;13.95;4.70;;;;;;;16.09;47.13;98796.03;3982882;32;15024110;-67
2021/11/02 08:47:18;;;;;;;15.20;4.30;;;;;;;18.38;42.95;98857.69;4415946;32;20073;-68
2021/11/02 08:49:45;;;;;;;11.88;3.67;;;;;;;18.60;41.87;98857.41;4415833;32;20037;-67
2021/11/02 08:52:14;;;;;;;8.27;3.45;;;;;;;18.86;41.22;98860.38;4416384;32;20067;-68
2021/11/02 08:54:42;;;;;;;10.50;3.12;;;;;;;19.01;40.61;98858.59;4415768;32;20474;-68
2021/11/02 08:57:10;;;;;;;7.90;3.22;;;;;;;19.03;39.67;98852.38;4412012;32;20493;-67
2021/11/02 08:59:37;;;;;;;10.50;2.75;;;;;;;19.14;39.47;98852.16;4415011;32;20099;-67
2021/11/02 09:02:07;;;;;;;9.68;5.72;;;;;;;19.05;39.28;98850.50;4414294;32;20541;-67
2021/11/02 09:04:38;;;;;;;15.30;3.45;;;;;;;19.27;39.17;98849.41;4416836;32;20212;-67
2021/11/02 09:07:05;;;;;;;13.88;3.30;;;;;;;19.20;39.50;98852.84;4416120;32;20244;-67
2021/11/02 09:09:37;;;;;;;14.77;3.05;;;;;;;19.45;38.51;98851.41;4413523;32;20394;-67
2021/11/02 09:12:04;;;;;;;14.75;2.90;;;;;;;19.55;38.92;98847.59;4416890;32;20107;-67
2021/11/02 09:14:36;;;;;;;20.17;6.60;;;;;;;19.99;38.38;98853.81;4411419;32;20038;-67
2021/11/02 09:17:03;;;;;;;12.20;2.72;;;;;;;20.64;37.83;98857.41;4410523;32;20204;-67
2021/11/02 09:19:29;;;;;;;11.82;2.85;;;;;;;20.76;36.88;98857.94;4410230;32;20416;-67
2021/11/02 09:21:56;;;;;;;10.25;3.22;;;;;;;20.74;36.12;98864.22;4419894;32;20049;-67
2021/11/02 09:24:23;;;;;;;11.50;2.45;;;;;;;20.86;35.99;98854.06;4417264;32;20422;-67
2021/11/02 09:26:49;;;;;;;7.87;2.30;;;;;;;20.95;35.10;98858.56;4417112;32;20614;-67
2021/11/02 09:29:18;;;;;;;10.20;1.75;;;;;;;21.00;35.33;98863.41;4419631;32;20215;-68
2021/11/02 09:31:45;;;;;;;8.50;2.20;;;;;;;21.42;34.75;98865.00;4413468;32;20073;-67
2021/11/02 09:34:11;;;;;;;6.72;1.50;;;;;;;21.46;34.79;98869.03;4398403;32;20512;-67
2021/11/02 09:36:41;;;;;;;9.23;2.17;;;;;;;21.70;33.71;98871.53;4408438;32;20078;-68
2021/11/02 09:39:10;;;;;;;8.60;1.70;;;;;;;22.33;33.43;98872.22;4409469;32;20112;-67
2021/11/02 09:42:02;;;;;;;12.82;1.92;;;;;;;22.28;33.32;98873.13;4415714;32;20081;-68
2021/11/02 09:53:18;;;;;;;6.80;1.62;;;;;;;23.04;31.70;98863.56;3974822;32;15022578;-67
2021/11/02 10:12:23;;;;;;;5.78;1.73;;;;;;;22.47;33.37;98868.66;3969151;32;15024065;-68
2021/11/02 10:18:16;;;;;;;9.25;1.70;;;;;;;22.43;33.63;98867.50;3998267;31;15017807;-67
2021/11/02 10:26:40;;;;;;;11.32;2.22;;;;;;;23.88;31.69;98877.50;3969501;32;15026219;-67
2021/11/02 10:45:26;;;;;;;8.13;1.37;;;;;;;23.13;31.40;98883.84;3982518;31;15017201;-68
2021/11/02 10:48:10;;;;;;;9.50;1.90;;;;;;;23.23;31.58;98884.88;4428173;32;20442;-67
2021/11/02 10:50:43;;;;;;;9.25;1.73;;;;;;;23.60;30.81;98889.16;4425204;32;20092;-68
2021/11/02 10:53:09;;;;;;;7.93;1.40;;;;;;;23.75;30.84;98885.53;4428480;32;20486;-68
2021/11/02 11:01:06;;;;;;;8.13;1.52;;;;;;;24.07;30.53;98889.38;3974929;32;15021479;-70
2021/11/02 11:03:35;;;;;;;7.03;1.25;;;;;;;24.13;29.69;98887.06;4427924;32;20119;-69
2021/11/02 11:06:03;;;;;;;8.10;1.92;;;;;;;24.06;30.41;98887.06;4427758;32;20491;-69
2021/11/02 11:08:34;;;;;;;6.65;1.80;;;;;;;24.52;29.79;98892.19;4422465;32;20107;-69
2021/11/02 11:11:03;;;;;;;3.33;1.15;;;;;;;25.25;28.56;98890.94;4425121;32;20037;-69
2021/11/02 11:13:30;;;;;;;12.40;1.92;;;;;;;25.56;28.83;98877.16;4426994;32;20045;-69
2021/11/02 11:16:00;;;;;;;7.75;2.12;;;;;;;26.12;28.09;98891.50;4426216;32;20088;-69
2021/11/02 11:18:36;;;;;;;8.63;1.92;;;;;;;26.62;26.63;98886.41;4426253;32;20073;-69
2021/11/02 11:21:02;;;;;;;6.75;1.50;;;;;;;26.63;26.35;98887.94;4427507;32;20601;-69
2021/11/02 11:23:35;;;;;;;7.57;1.58;;;;;;;26.26;26.55;98889.81;4428176;32;20537;-69
2021/11/02 11:26:06;;;;;;;5.65;1.20;;;;;;;26.67;26.19;98894.03;4427506;32;20119;-69
2021/11/02 11:28:35;;;;;;;5.53;1.17;;;;;;;26.00;27.06;98895.44;4425327;32;21046;-69
2021/11/02 11:31:01;;;;;;;5.12;1.35;;;;;;;25.74;26.31;98887.38;4423799;32;20037;-69
2021/11/02 11:33:29;;;;;;;6.70;1.45;;;;;;;24.94;27.61;98892.41;4426187;32;20320;-69
2021/11/02 11:36:01;;;;;;;7.97;1.83;;;;;;;24.47;27.44;98893.16;4422401;32;20100;-68
2021/11/02 11:38:35;;;;;;;4.55;1.27;;;;;;;24.03;28.72;98888.22;4423824;32;20122;-69
2021/11/02 11:41:04;;;;;;;7.95;1.20;;;;;;;24.06;28.63;98892.81;4429109;32;20111;-69
2021/11/02 11:43:32;;;;;;;6.18;1.30;;;;;;;24.13;28.10;98886.28;4425688;32;20073;-69
2021/11/02 11:46:01;;;;;;;7.85;0.75;;;;;;;23.86;28.38;98894.53;4427151;32;20545;-70
2021/11/02 11:48:27;;;;;;;6.70;1.00;;;;;;;23.82;28.16;98894.16;4424307;32;20077;-69
2021/11/02 11:50:57;;;;;;;9.35;1.30;;;;;;;23.47;28.52;98895.81;4427739;32;20355;-70
2021/11/02 11:53:24;;;;;;;6.95;1.10;;;;;;;23.67;28.57;98890.50;4422011;32;20427;-69
2021/11/02 11:56:02;;;;;;;6.50;1.05;;;;;;;23.20;29.56;98888.09;4423864;32;20489;-70
2021/11/02 11:58:28;;;;;;;7.57;0.90;;;;;;;23.39;28.83;98892.19;4422972;32;20548;-69
2021/11/02 12:01:06;;;;;;;4.97;0.70;;;;;;;23.03;29.43;98893.56;4426467;32;20483;-70
2021/11/02 12:11:30;;;;;;;6.65;1.35;;;;;;;25.64;26.69;98881.50;3979775;31;15014418;-70
2021/11/02 12:16:39;;;;;;;6.62;1.40;;;;;;;25.57;26.62;98884.41;3972545;32;15022619;-70
2021/11/02 12:19:11;;;;;;;5.75;0.98;;;;;;;25.57;26.62;98884.41;4417127;32;20486;-70
2021/11/02 12:21:40;;;;;;;9.02;1.20;;;;;;;25.11;27.09;98881.03;4427998;32;20092;-70
2021/11/02 12:24:09;;;;;;;11.68;1.52;;;;;;;25.56;26.57;98877.91;4426018;32;20102;-70
2021/11/02 12:26:39;;;;;;;7.75;1.77;;;;;;;26.04;26.24;98875.63;4420732;32;20029;-70
2021/11/02 12:29:09;;;;;;;5.28;1.42;;;;;;;25.68;26.90;98878.22;4422077;32;20037;-70
2021/11/02 12:31:36;;;;;;;10.90;1.58;;;;;;;26.29;25.98;98885.00;4401876;32;20059;-70
2021/11/02 12:34:12;;;;;;;9.00;1.33;;;;;;;26.88;24.91;98882.84;4422521;32;20455;-70
2021/11/02 12:36:45;;;;;;;7.22;1.30;;;;;;;27.18;24.65;98877.41;4424346;32;20042;-70
2021/11/02 12:39:12;;;;;;;8.90;1.75;;;;;;;26.65;24.67;98876.56;4425096;32;20088;-69
2021/11/02 12:41:50;;;;;;;8.70;1.42;;;;;;;24.88;26.76;98886.16;4427201;32;20390;-69
2021/11/02 12:44:19;;;;;;;7.18;1.02;;;;;;;25.11;26.67;98890.44;4417933;32;20466;-68
2021/11/02 12:46:47;;;;;;;6.60;1.40;;;;;;;24.07;27.68;98877.88;4420867;32;20067;-70
2021/11/02 12:49:18;;;;;;;11.52;1.30;;;;;;;23.77;28.49;98886.47;4424485;32;20033;-69
2021/11/02 12:51:51;;;;;;;12.90;1.25;;;;;;;22.90;29.75;98882.25;4424334;32;20125;-69
2021/11/02 12:54:20;;;;;;;11.00;2.25;;;;;;;22.65;30.03;98876.25;4425175;32;20135;-69
2021/11/02 12:57:01;;;;;;;13.40;1.60;;;;;;;22.40;30.86;98885.81;4424194;32;20529;-69
2021/11/02 12:59:35;;;;;;;8.93;1.25;;;;;;;22.53;30.34;98882.84;4424919;32;20072;-69
2021/11/02 13:05:01;;;;;;;12.27;1.40;;;;;;;22.71;30.46;98890.41;3968270;32;15022354;-70
2021/11/02 13:07:27;;;;;;;10.48;1.98;;;;;;;22.71;30.46;98890.41;4426919;32;20367;-69
2021/11/02 13:09:56;;;;;;;7.97;1.50;;;;;;;22.36;30.81;98894.00;4424276;32;20086;-69
2021/11/02 13:12:24;;;;;;;7.95;1.67;;;;;;;22.23;31.19;98886.28;4426194;32;20112;-69
2021/11/02 13:14:52;;;;;;;8.63;1.20;;;;;;;22.84;30.33;98884.53;4424228;32;20316;-69
2021/11/02 13:17:20;;;;;;;7.15;1.42;;;;;;;23.22;29.51;98885.41;4425357;32;20076;-69
2021/11/02 13:19:49;;;;;;;9.68;1.67;;;;;;;23.76;28.85;98896.44;4425803;32;20395;-69
2021/11/02 13:22:21;;;;;;;10.38;1.48;;;;;;;24.06;28.89;98895.69;4427990;32;20146;-69
2021/11/02 13:25:08;;;;;;;6.62;1.30;;;;;;;23.61;29.24;98899.28;4424971;32;20118;-68
2021/11/02 13:30:31;;;;;;;8.38;1.52;;;;;;;23.93;28.99;98898.75;3944694;31;15726795;-68
2021/11/02 13:35:48;;;;;;;9.40;1.55;;;;;;;25.20;27.76;98894.81;3975285;32;15028610;-71
2021/11/02 13:38:24;;;;;;;12.02;1.33;;;;;;;25.20;27.76;98894.81;4428205;32;20037;-71
2021/11/02 13:40:50;;;;;;;;;;;;;;;25.43;27.50;98886.81;4435107;32;20119;-69
2021/11/02 13:43:28;;;;;;;5.85;1.33;;;;;;;25.26;27.02;98893.25;4426011;32;20596;-68
2021/11/02 13:45:54;;;;;;;12.13;1.50;;;;;;;24.95;27.38;98886.09;4426275;32;20111;-68
2021/11/02 13:48:22;;;;;;;5.82;1.48;;;;;;;24.50;28.85;98891.97;4429189;32;20073;-70
2021/11/02 13:50:49;;;;;;;10.93;1.50;;;;;;;24.43;28.30;98892.00;4433963;32;20132;-70
2021/11/02 13:53:15;;;;;;;12.57;2.15;;;;;;;23.71;29.13;98897.38;4426187;32;20080;-70
2021/11/02 13:55:41;;;;;;;14.87;1.58;;;;;;;23.26;29.77;98891.59;4431877;32;20045;-70
2021/11/02 13:58:07;;;;;;;8.75;1.75;;;;;;;22.68;30.60;98883.72;4430588;32;20287;-70
2021/11/02 14:00:35;;;;;;;5.80;1.40;;;;;;;22.90;30.36;98879.38;4434323;32;20049;-70
2021/11/02 14:03:08;;;;;;;5.65;1.20;;;;;;;23.20;30.13;98885.22;4429430;32;20081;-69
2021/11/02 14:05:36;;;;;;;6.87;1.40;;;;;;;23.57;29.28;98886.66;4430136;32;20097;-69
2021/11/02 14:08:02;;;;;;;6.53;1.20;;;;;;;23.45;29.29;98880.53;4426190;32;20081;-69
2021/11/02 14:10:29;;;;;;;6.10;1.48;;;;;;;23.97;28.79;98879.81;4428233;32;20337;-70
2021/11/02 14:12:55;;;;;;;3.45;0.90;;;;;;;24.70;28.05;98888.09;4425687;32;20484;-71
2021/11/02 14:15:24;;;;;;;5.37;1.08;;;;;;;24.67;27.55;98877.75;4432520;32;20065;-69
2021/11/02 14:20:54;;;;;;;8.48;1.42;;;;;;;23.32;29.40;98892.19;3973963;32;15023703;-70
2021/11/02 14:28:56;;;;;;;6.72;1.15;;;;;;;22.58;30.99;98891.28;3970141;32;15023078;-68
2021/11/02 14:37:21;;;;;;;8.05;1.40;;;;;;;22.83;31.13;98897.34;3953258;32;15022578;-69
2021/11/02 14:40:07;;;;;;;5.22;1.37;;;;;;;22.83;31.13;98897.34;4402457;32;20100;-71
2021/11/02 14:45:36;;;;;;;7.55;1.35;;;;;;;23.93;30.27;98902.38;3964865;32;15022502;-70
2021/11/02 14:48:42;;;;;;;7.12;1.87;;;;;;;23.93;30.27;98902.38;4421472;32;21272;-70
2021/11/02 14:51:25;;;;;;;8.07;1.40;;;;;;;24.61;28.28;98905.19;4417282;32;20048;-70
2021/11/02 14:53:54;;;;;;;7.10;1.40;;;;;;;24.79;27.87;98904.75;4419740;32;20079;-70
2021/11/02 14:58:58;;;;;;;7.03;1.30;;;;;;;23.34;30.08;98904.59;3965735;32;15016286;-70
2021/11/02 15:01:55;;;;;;;8.30;2.03;;;;;;;23.34;30.08;98904.59;4413763;32;20021;-70
2021/11/02 15:04:21;;;;;;;7.22;1.60;;;;;;;23.03;30.65;98902.19;4410626;32;20085;-70
2021/11/02 15:07:04;;;;;;;7.25;1.62;;;;;;;22.75;31.92;98902.25;4409470;32;20033;-70
2021/11/02 15:09:34;;;;;;;11.07;3.85;;;;;;;23.19;31.21;98900.91;4412328;32;20073;-70
2021/11/02 15:12:01;;;;;;;8.93;2.28;;;;;;;23.02;31.08;98904.31;4411843;32;20094;-70
2021/11/02 15:14:30;;;;;;;9.60;3.28;;;;;;;23.12;30.74;98902.41;4410818;32;20089;-71
2021/11/02 15:19:40;;;;;;;9.93;1.60;;;;;;;23.02;30.79;98909.25;3921196;32;15723316;-71
2021/11/02 15:22:11;;;;;;;10.40;1.87;;;;;;;22.83;31.10;98908.81;4398270;32;20089;-70
2021/11/02 15:24:40;;;;;;;5.80;2.30;;;;;;;22.90;31.37;98905.97;4392640;32;20378;-70
2021/11/02 15:29:51;;;;;;;9.88;2.80;;;;;;;22.75;31.47;98911.63;3968490;32;15022280;-70
2021/11/02 15:32:21;;;;;;;9.13;2.65;;;;;;;22.58;32.16;98911.34;4431445;32;20358;-70
2021/11/02 15:37:27;;;;;;;8.73;2.22;;;;;;;22.74;31.89;98910.09;3974930;32;15030672;-70
2021/11/02 15:42:31;;;;;;;5.12;1.95;;;;;;;22.92;32.33;98908.28;3982432;31;15015764;-70
2021/11/02 15:45:01;;;;;;;10.10;2.67;;;;;;;22.92;32.33;98908.28;4431556;32;20072;-70
2021/11/02 15:47:28;;;;;;;4.82;1.98;;;;;;;22.44;32.86;98907.06;4431805;32;20125;-70
2021/11/02 15:49:59;;;;;;;6.75;2.00;;;;;;;22.50;32.61;98909.78;4431809;32;20340;-70
2021/11/02 15:52:29;;;;;;;8.93;2.65;;;;;;;22.46;32.67;98906.47;4434202;32;20489;-70
2021/11/02 15:55:04;;;;;;;10.25;2.45;;;;;;;22.46;32.88;98907.22;4431639;32;20373;-69
2021/11/02 15:57:37;;;;;;;17.65;2.95;;;;;;;22.46;32.71;98915.84;4433263;32;20172;-70
2021/11/02 16:00:05;;;;;;;12.18;2.08;;;;;;;22.40;32.92;98906.62;4432589;32;20045;-70
2021/11/02 16:02:34;;;;;;;8.02;1.98;;;;;;;21.97;33.53;98911.50;4431540;32;20499;-70
2021/11/02 16:05:04;;;;;;;8.35;2.83;;;;;;;21.63;34.09;98915.16;4430113;32;20084;-71
2021/11/02 16:07:31;;;;;;;12.63;3.08;;;;;;;21.60;34.30;98912.69;4429120;32;20069;-71
2021/11/02 16:09:57;;;;;;;7.22;2.90;;;;;;;21.35;34.74;98912.22;4433528;32;20101;-70
2021/11/02 16:12:30;;;;;;;18.08;3.45;;;;;;;21.20;34.66;98912.06;4434113;32;20383;-70
2021/11/02 16:15:17;;;;;;;13.30;2.75;;;;;;;21.20;34.85;98906.34;4432477;32;20042;-70
2021/11/02 16:20:26;;;;;;;6.15;2.78;;;;;;;20.79;35.17;98922.59;3974761;32;15022027;-70
2021/11/02 16:23:14;;;;;;;9.88;2.80;;;;;;;20.71;36.19;98927.44;4430210;32;20114;-70
2021/11/02 16:25:47;;;;;;;13.05;2.70;;;;;;;20.79;35.73;98928.31;4431258;32;20038;-70
2021/11/02 16:30:55;;;;;;;11.52;2.70;;;;;;;21.09;35.90;98938.06;3954026;32;15722524;-70
2021/11/02 16:33:43;;;;;;;11.73;4.20;;;;;;;21.09;35.90;98938.06;4430425;32;20118;-69
2021/11/02 16:36:28;;;;;;;12.93;3.95;;;;;;;20.61;36.47;98929.97;4428777;32;20084;-70
2021/11/02 16:41:40;;;;;;;12.15;3.80;;;;;;;20.81;36.91;98946.47;3980267;32;15022717;-69
2021/11/02 16:44:09;;;;;;;17.12;4.03;;;;;;;20.81;36.91;98946.47;4430266;32;20073;-68
2021/11/02 16:49:20;;;;;;;10.15;3.97;;;;;;;20.56;37.48;98942.28;3975986;32;15022648;-70
2021/11/02 17:15:48;;;;;;;27.98;12.15;;;;;;;20.95;37.67;98973.72;3960723;32;15286808;-70
2021/11/02 17:18:19;;;;;;;25.95;10.68;;;;;;;20.95;37.67;98973.72;4425350;32;20083;-70
2021/11/02 17:20:46;;;;;;;30.05;11.77;;;;;;;20.49;37.99;98977.25;4410512;32;20540;-70
2021/11/02 17:23:18;;;;;;;32.90;12.35;;;;;;;20.44;37.92;98978.13;4422913;32;20060;-70
2021/11/02 17:25:45;;;;;;;57.58;18.17;;;;;;;20.46;37.77;98984.06;4421245;32;20104;-70
2021/11/02 17:28:11;;;;;;;31.62;11.90;;;;;;;20.30;37.64;98990.84;4422356;32;20045;-71
2021/11/02 17:30:38;;;;;;;51.17;15.45;;;;;;;20.22;37.79;98989.19;4424408;32;20081;-70
2021/11/02 17:33:04;;;;;;;56.30;19.30;;;;;;;20.24;38.27;98989.41;4424606;32;20123;-70
2021/11/02 17:35:32;;;;;;;44.83;15.63;;;;;;;20.36;38.00;98994.37;4424492;32;20484;-70
2021/11/02 17:38:00;;;;;;;20.58;8.88;;;;;;;20.29;38.26;98995.03;4424903;32;20435;-70
2021/11/02 17:40:27;;;;;;;25.95;8.63;;;;;;;20.55;37.99;99000.75;4420948;32;20532;-70
2021/11/02 17:42:57;;;;;;;21.05;9.02;;;;;;;20.37;38.04;99000.88;4423758;32;20061;-71
2021/11/02 17:45:24;;;;;;;17.70;5.75;;;;;;;20.39;38.06;99012.50;4422706;32;20101;-70
2021/11/02 17:47:51;;;;;;;15.77;5.12;;;;;;;20.39;37.21;99016.13;4409968;32;20045;-70
2021/11/02 17:50:20;;;;;;;13.93;3.87;;;;;;;20.28;37.24;99007.75;4422662;32;20037;-70
2021/11/02 17:52:46;;;;;;;13.02;4.25;;;;;;;20.18;36.90;99020.16;4424671;32;20041;-70
2021/11/02 17:55:14;;;;;;;14.32;3.75;;;;;;;20.22;36.87;99015.66;4423053;32;20384;-70
2021/11/02 17:57:41;;;;;;;10.52;3.85;;;;;;;20.33;36.90;99023.25;4422739;32;20376;-70
2021/11/02 18:00:11;;;;;;;16.42;4.47;;;;;;;20.41;37.41;99016.38;4422938;32;20187;-70
2021/11/02 18:02:37;;;;;;;10.38;4.10;;;;;;;20.23;37.92;99014.34;4424620;32;20127;-70
2021/11/02 18:05:03;;;;;;;12.27;3.83;;;;;;;20.02;38.02;99015.47;4425374;32;20081;-70
2021/11/02 18:07:30;;;;;;;6.57;2.95;;;;;;;19.98;38.07;99018.66;4421217;32;20021;-70
2021/11/02 18:09:57;;;;;;;8.60;2.80;;;;;;;19.81;38.14;99023.84;4423328;32;20109;-70
2021/11/02 18:12:30;;;;;;;8.95;3.30;;;;;;;20.05;37.98;99018.00;4422726;32;20108;-70
2021/11/02 18:14:57;;;;;;;11.32;4.00;;;;;;;20.07;37.99;99020.31;4423674;32;20430;-70
2021/11/02 18:17:24;;;;;;;7.62;2.92;;;;;;;20.04;38.11;99016.47;4423492;32;20110;-70
2021/11/02 18:19:53;;;;;;;12.25;3.92;;;;;;;19.91;38.55;99019.28;4409193;32;20077;-70
2021/11/02 18:22:21;;;;;;;13.43;5.10;;;;;;;19.86;38.65;99022.22;4422717;32;20096;-70
2021/11/02 18:24:48;;;;;;;15.30;5.10;;;;;;;19.72;38.67;99025.03;4423438;32;20049;-70
2021/11/02 18:27:14;;;;;;;13.07;5.47;;;;;;;19.54;38.73;99028.69;4413123;32;20437;-70
2021/11/02 18:29:41;;;;;;;19.75;4.90;;;;;;;19.59;38.83;99029.91;4411338;32;20046;-70
2021/11/02 18:32:08;;;;;;;13.70;5.25;;;;;;;19.61;39.03;99027.31;4412120;32;20095;-70
2021/11/02 18:34:34;;;;;;;19.05;7.20;;;;;;;19.67;38.58;99028.75;4412229;32;20093;-70
2021/11/02 18:37:01;;;;;;;12.65;4.93;;;;;;;19.71;38.58;99040.63;4412583;32;20041;-70
2021/11/02 18:39:27;;;;;;;14.35;4.03;;;;;;;19.79;38.57;99037.91;4413416;32;20066;-70
2021/11/02 18:41:53;;;;;;;13.30;4.32;;;;;;;19.56;38.72;99036.69;4413982;32;20383;-70
2021/11/02 18:44:20;;;;;;;10.18;4.05;;;;;;;19.70;38.62;99047.63;4409386;32;20057;-70
2021/11/02 18:46:46;;;;;;;24.10;5.15;;;;;;;19.90;38.50;99054.06;4411949;32;20131;-70
2021/11/02 18:49:13;;;;;;;10.40;3.95;;;;;;;19.56;38.70;99051.75;4412877;32;20112;-70
2021/11/02 18:51:39;;;;;;;11.45;4.43;;;;;;;19.72;39.01;99050.72;4412602;32;20026;-70
2021/11/02 18:54:06;;;;;;;10.80;3.97;;;;;;;19.61;38.47;99058.69;4413406;32;20038;-70